Airport View

Enter AWOS ICAO identifier for current METAR.

ex. KFNL

KHYA 181056Z 28004KT 10SM CLR M09/M16 A3055 RMK AO2 SLP345 T10941161

18 Jan 2020 11:23

Phone: 508-862-2601

Other Area AWOS: KFMH - KCQX - KMVY - KPVC

TAF KHYA 180530Z 1806/1906 32008KT P6SM SKC FM182000 20006KT P6SM VCSH OVC040 FM182200 17008KT 2SM -SN BR OVC020 FM190000 17010KT 1/4SM +SN FZFG OVC005 FM190200 17013G20KT 1/2SM SN FZFG OVC008 FM190300 17014G22KT 5SM -RASN OVC003 FM190500 18013KT 5SM -RA BR OVC003